Pelham, New Hampshire
Current Conditions -  °F | °C
As of 12:20 PM on Saturday 20 Dec 2014 (Local Time) from KLWM Reporting Station
Overcast Overcast  
Wind Chill: -4°   Ceiling: 3100
Heat Index:   Visibility: 10mi
Dew Point: -5°   Wind: 7mph
Humidity: 69%   Direction: 360°N
Pressure: 30.28"   Gusts: NA
Location:  42.73°N, 71.32°W
Report Text: KLWM 201720Z 36006KT 10SM OVC031 00/M05 A3028 RMK AO2 T00001050
Loading
Personal Weather Stations






























Interactive Weather Map New forecast layout! Learn more

10-Day Weather Forecast

Advertisements
Track Severe Weather on mobile